sensor_id;sensor_type;location;lat;lon;timestamp;P1;durP1;ratioP1;P2;durP2;ratioP2
29380;SDS011;16364;52.490;13.326;2023-12-14T00:01:13;13.27;;;8.37;;
29380;SDS011;16364;52.490;13.326;2023-12-14T00:03:38;14.77;;;9.97;;
29380;SDS011;16364;52.490;13.326;2023-12-14T00:06:06;12.17;;;8.90;;
29380;SDS011;16364;52.490;13.326;2023-12-14T00:08:31;14.13;;;8.70;;
29380;SDS011;16364;52.490;13.326;2023-12-14T00:10:56;17.10;;;9.10;;
29380;SDS011;16364;52.490;13.326;2023-12-14T00:13:21;13.63;;;8.30;;
29380;SDS011;16364;52.490;13.326;2023-12-14T00:15:47;16.17;;;8.40;;
29380;SDS011;16364;52.490;13.326;2023-12-14T00:18:14;14.70;;;9.10;;
29380;SDS011;16364;52.490;13.326;2023-12-14T00:20:39;15.60;;;8.50;;
29380;SDS011;16364;52.490;13.326;2023-12-14T00:23:04;13.27;;;8.70;;
29380;SDS011;16364;52.490;13.326;2023-12-14T00:25:30;17.53;;;9.07;;
29380;SDS011;16364;52.490;13.326;2023-12-14T00:27:55;17.97;;;10.43;;
29380;SDS011;16364;52.490;13.326;2023-12-14T00:30:20;14.23;;;10.07;;
29380;SDS011;16364;52.490;13.326;2023-12-14T00:32:45;13.90;;;8.90;;
29380;SDS011;16364;52.490;13.326;2023-12-14T00:35:11;21.20;;;8.70;;
29380;SDS011;16364;52.490;13.326;2023-12-14T00:37:36;16.07;;;9.63;;
29380;SDS011;16364;52.490;13.326;2023-12-14T00:40:01;14.20;;;9.10;;
29380;SDS011;16364;52.490;13.326;2023-12-14T00:42:27;16.40;;;9.87;;
29380;SDS011;16364;52.490;13.326;2023-12-14T00:44:52;16.57;;;9.70;;
29380;SDS011;16364;52.490;13.326;2023-12-14T00:47:17;14.57;;;9.33;;
29380;SDS011;16364;52.490;13.326;2023-12-14T00:49:42;11.40;;;8.00;;
29380;SDS011;16364;52.490;13.326;2023-12-14T00:52:08;12.43;;;8.90;;
29380;SDS011;16364;52.490;13.326;2023-12-14T00:54:33;13.10;;;8.17;;
29380;SDS011;16364;52.490;13.326;2023-12-14T00:56:58;18.43;;;10.50;;
29380;SDS011;16364;52.490;13.326;2023-12-14T00:59:23;13.50;;;8.87;;
29380;SDS011;16364;52.490;13.326;2023-12-14T01:01:49;14.47;;;8.60;;
29380;SDS011;16364;52.490;13.326;2023-12-14T01:04:14;15.97;;;8.90;;
29380;SDS011;16364;52.490;13.326;2023-12-14T01:06:39;16.47;;;10.50;;
29380;SDS011;16364;52.490;13.326;2023-12-14T01:09:04;13.13;;;9.30;;
29380;SDS011;16364;52.490;13.326;2023-12-14T01:11:29;14.03;;;9.80;;
29380;SDS011;16364;52.490;13.326;2023-12-14T01:13:55;14.33;;;9.50;;
29380;SDS011;16364;52.490;13.326;2023-12-14T01:16:20;16.33;;;8.83;;
29380;SDS011;16364;52.490;13.326;2023-12-14T01:18:45;13.50;;;7.40;;
29380;SDS011;16364;52.490;13.326;2023-12-14T01:21:10;14.87;;;9.00;;
29380;SDS011;16364;52.490;13.326;2023-12-14T01:23:36;14.40;;;7.90;;
29380;SDS011;16364;52.490;13.326;2023-12-14T01:26:01;12.53;;;8.90;;
29380;SDS011;16364;52.490;13.326;2023-12-14T01:28:26;12.77;;;7.87;;
29380;SDS011;16364;52.490;13.326;2023-12-14T01:30:52;12.40;;;7.20;;
29380;SDS011;16364;52.490;13.326;2023-12-14T01:33:17;16.87;;;8.17;;
29380;SDS011;16364;52.490;13.326;2023-12-14T01:35:44;18.40;;;8.30;;
29380;SDS011;16364;52.490;13.326;2023-12-14T01:38:10;12.97;;;7.17;;
29380;SDS011;16364;52.490;13.326;2023-12-14T01:40:35;13.13;;;7.77;;
29380;SDS011;16364;52.490;13.326;2023-12-14T01:43:07;12.50;;;7.80;;
29380;SDS011;16364;52.490;13.326;2023-12-14T01:45:34;12.67;;;7.70;;
29380;SDS011;16364;52.490;13.326;2023-12-14T01:47:59;12.50;;;7.83;;
29380;SDS011;16364;52.490;13.326;2023-12-14T01:50:24;11.80;;;7.40;;
29380;SDS011;16364;52.490;13.326;2023-12-14T01:52:49;13.27;;;7.80;;
29380;SDS011;16364;52.490;13.326;2023-12-14T01:55:15;13.30;;;8.03;;
29380;SDS011;16364;52.490;13.326;2023-12-14T01:57:40;12.00;;;7.10;;
29380;SDS011;16364;52.490;13.326;2023-12-14T02:00:05;11.60;;;7.70;;
29380;SDS011;16364;52.490;13.326;2023-12-14T02:02:31;9.37;;;7.20;;
29380;SDS011;16364;52.490;13.326;2023-12-14T02:04:56;8.70;;;6.70;;
29380;SDS011;16364;52.490;13.326;2023-12-14T02:07:21;9.83;;;6.60;;
29380;SDS011;16364;52.490;13.326;2023-12-14T02:09:46;9.00;;;6.13;;
29380;SDS011;16364;52.490;13.326;2023-12-14T02:12:12;7.07;;;6.33;;
29380;SDS011;16364;52.490;13.326;2023-12-14T02:14:37;6.30;;;4.80;;
29380;SDS011;16364;52.490;13.326;2023-12-14T02:17:02;12.30;;;7.20;;
29380;SDS011;16364;52.490;13.326;2023-12-14T02:19:28;10.63;;;6.40;;
29380;SDS011;16364;52.490;13.326;2023-12-14T02:21:53;8.53;;;6.30;;
29380;SDS011;16364;52.490;13.326;2023-12-14T02:24:18;8.60;;;5.37;;
29380;SDS011;16364;52.490;13.326;2023-12-14T02:26:44;6.20;;;4.83;;
29380;SDS011;16364;52.490;13.326;2023-12-14T02:29:09;7.37;;;5.10;;
29380;SDS011;16364;52.490;13.326;2023-12-14T02:31:34;7.17;;;5.07;;
29380;SDS011;16364;52.490;13.326;2023-12-14T02:34:00;8.90;;;4.63;;
29380;SDS011;16364;52.490;13.326;2023-12-14T02:36:25;9.07;;;6.57;;
29380;SDS011;16364;52.490;13.326;2023-12-14T02:38:50;6.47;;;5.80;;
29380;SDS011;16364;52.490;13.326;2023-12-14T02:41:15;11.70;;;6.70;;
29380;SDS011;16364;52.490;13.326;2023-12-14T02:43:41;8.10;;;6.73;;
29380;SDS011;16364;52.490;13.326;2023-12-14T02:46:06;10.87;;;5.93;;
29380;SDS011;16364;52.490;13.326;2023-12-14T02:48:31;11.13;;;7.30;;
29380;SDS011;16364;52.490;13.326;2023-12-14T02:50:56;8.13;;;5.93;;
29380;SDS011;16364;52.490;13.326;2023-12-14T02:53:22;8.37;;;6.70;;
29380;SDS011;16364;52.490;13.326;2023-12-14T02:55:47;9.13;;;6.60;;
29380;SDS011;16364;52.490;13.326;2023-12-14T02:58:12;10.50;;;7.60;;
29380;SDS011;16364;52.490;13.326;2023-12-14T03:00:38;8.30;;;6.80;;
29380;SDS011;16364;52.490;13.326;2023-12-14T03:03:03;13.37;;;6.80;;
29380;SDS011;16364;52.490;13.326;2023-12-14T03:05:28;8.90;;;7.27;;
29380;SDS011;16364;52.490;13.326;2023-12-14T03:07:53;9.87;;;6.47;;
29380;SDS011;16364;52.490;13.326;2023-12-14T03:10:19;13.03;;;8.00;;
29380;SDS011;16364;52.490;13.326;2023-12-14T03:12:44;13.90;;;7.77;;
29380;SDS011;16364;52.490;13.326;2023-12-14T03:15:09;11.17;;;7.13;;
29380;SDS011;16364;52.490;13.326;2023-12-14T03:17:35;10.93;;;7.40;;
29380;SDS011;16364;52.490;13.326;2023-12-14T03:20:00;10.87;;;7.10;;
29380;SDS011;16364;52.490;13.326;2023-12-14T03:22:25;9.40;;;6.97;;
29380;SDS011;16364;52.490;13.326;2023-12-14T03:24:50;12.07;;;6.93;;
29380;SDS011;16364;52.490;13.326;2023-12-14T03:27:16;14.60;;;7.70;;
29380;SDS011;16364;52.490;13.326;2023-12-14T03:29:41;13.33;;;8.00;;
29380;SDS011;16364;52.490;13.326;2023-12-14T03:32:06;10.73;;;7.00;;
29380;SDS011;16364;52.490;13.326;2023-12-14T03:34:31;13.30;;;7.50;;
29380;SDS011;16364;52.490;13.326;2023-12-14T03:36:57;14.53;;;7.13;;
29380;SDS011;16364;52.490;13.326;2023-12-14T03:39:22;11.27;;;7.60;;
29380;SDS011;16364;52.490;13.326;2023-12-14T03:41:47;12.57;;;7.93;;
29380;SDS011;16364;52.490;13.326;2023-12-14T03:44:12;10.73;;;7.20;;
29380;SDS011;16364;52.490;13.326;2023-12-14T03:46:38;13.17;;;8.10;;
29380;SDS011;16364;52.490;13.326;2023-12-14T03:49:03;15.03;;;9.00;;
29380;SDS011;16364;52.490;13.326;2023-12-14T03:51:29;11.33;;;7.30;;
29380;SDS011;16364;52.490;13.326;2023-12-14T03:53:54;12.20;;;7.80;;
29380;SDS011;16364;52.490;13.326;2023-12-14T03:56:19;13.97;;;7.33;;
29380;SDS011;16364;52.490;13.326;2023-12-14T03:58:44;9.20;;;6.30;;
29380;SDS011;16364;52.490;13.326;2023-12-14T04:01:19;9.80;;;6.97;;
29380;SDS011;16364;52.490;13.326;2023-12-14T04:03:45;11.87;;;6.90;;
29380;SDS011;16364;52.490;13.326;2023-12-14T04:06:14;12.13;;;6.93;;
29380;SDS011;16364;52.490;13.326;2023-12-14T04:08:39;11.33;;;8.27;;
29380;SDS011;16364;52.490;13.326;2023-12-14T04:11:05;11.63;;;7.33;;
29380;SDS011;16364;52.490;13.326;2023-12-14T04:13:30;12.80;;;7.10;;
29380;SDS011;16364;52.490;13.326;2023-12-14T04:15:55;12.57;;;7.57;;
29380;SDS011;16364;52.490;13.326;2023-12-14T04:18:20;10.00;;;7.07;;
29380;SDS011;16364;52.490;13.326;2023-12-14T04:20:46;9.63;;;7.20;;
29380;SDS011;16364;52.490;13.326;2023-12-14T04:23:11;10.97;;;6.43;;
29380;SDS011;16364;52.490;13.326;2023-12-14T04:25:36;11.80;;;6.30;;
29380;SDS011;16364;52.490;13.326;2023-12-14T04:28:01;10.30;;;6.10;;
29380;SDS011;16364;52.490;13.326;2023-12-14T04:30:27;8.93;;;6.43;;
29380;SDS011;16364;52.490;13.326;2023-12-14T04:32:52;10.37;;;5.73;;
29380;SDS011;16364;52.490;13.326;2023-12-14T04:35:18;12.13;;;6.47;;
29380;SDS011;16364;52.490;13.326;2023-12-14T04:37:43;8.40;;;6.40;;
29380;SDS011;16364;52.490;13.326;2023-12-14T04:40:08;11.57;;;6.33;;
29380;SDS011;16364;52.490;13.326;2023-12-14T04:42:34;13.30;;;6.00;;
29380;SDS011;16364;52.490;13.326;2023-12-14T04:45:00;10.30;;;5.67;;
29380;SDS011;16364;52.490;13.326;2023-12-14T04:47:26;9.77;;;6.90;;
29380;SDS011;16364;52.490;13.326;2023-12-14T04:49:51;16.50;;;6.57;;
29380;SDS011;16364;52.490;13.326;2023-12-14T04:52:16;11.23;;;6.00;;
29380;SDS011;16364;52.490;13.326;2023-12-14T04:54:41;14.13;;;6.97;;
29380;SDS011;16364;52.490;13.326;2023-12-14T04:57:07;8.63;;;6.80;;
29380;SDS011;16364;52.490;13.326;2023-12-14T04:59:32;9.10;;;5.80;;
29380;SDS011;16364;52.490;13.326;2023-12-14T05:01:57;7.73;;;5.23;;
29380;SDS011;16364;52.490;13.326;2023-12-14T05:04:22;8.70;;;5.80;;
29380;SDS011;16364;52.490;13.326;2023-12-14T05:06:48;11.93;;;6.70;;
29380;SDS011;16364;52.490;13.326;2023-12-14T05:09:13;10.60;;;6.50;;
29380;SDS011;16364;52.490;13.326;2023-12-14T05:11:41;11.23;;;6.23;;
29380;SDS011;16364;52.490;13.326;2023-12-14T05:14:07;10.73;;;5.97;;
29380;SDS011;16364;52.490;13.326;2023-12-14T05:16:32;7.27;;;5.60;;
29380;SDS011;16364;52.490;13.326;2023-12-14T05:18:57;8.27;;;6.23;;
29380;SDS011;16364;52.490;13.326;2023-12-14T05:21:23;13.80;;;7.50;;
29380;SDS011;16364;52.490;13.326;2023-12-14T05:23:48;13.20;;;7.10;;
29380;SDS011;16364;52.490;13.326;2023-12-14T05:26:13;11.07;;;6.73;;
29380;SDS011;16364;52.490;13.326;2023-12-14T05:28:39;9.30;;;6.63;;
29380;SDS011;16364;52.490;13.326;2023-12-14T05:31:04;10.03;;;6.90;;
29380;SDS011;16364;52.490;13.326;2023-12-14T05:33:29;12.60;;;6.67;;
29380;SDS011;16364;52.490;13.326;2023-12-14T05:35:56;7.73;;;6.90;;
29380;SDS011;16364;52.490;13.326;2023-12-14T05:38:21;12.87;;;6.33;;
29380;SDS011;16364;52.490;13.326;2023-12-14T05:40:46;10.37;;;7.17;;
29380;SDS011;16364;52.490;13.326;2023-12-14T05:43:12;12.60;;;7.20;;
29380;SDS011;16364;52.490;13.326;2023-12-14T05:45:37;10.40;;;7.23;;
29380;SDS011;16364;52.490;13.326;2023-12-14T05:48:02;14.67;;;8.53;;
29380;SDS011;16364;52.490;13.326;2023-12-14T05:50:30;10.63;;;7.13;;
29380;SDS011;16364;52.490;13.326;2023-12-14T05:52:55;10.87;;;6.63;;
29380;SDS011;16364;52.490;13.326;2023-12-14T05:55:20;9.20;;;6.60;;
29380;SDS011;16364;52.490;13.326;2023-12-14T05:57:47;9.07;;;6.83;;
29380;SDS011;16364;52.490;13.326;2023-12-14T06:00:13;10.17;;;6.97;;
29380;SDS011;16364;52.490;13.326;2023-12-14T06:02:38;11.80;;;8.17;;
29380;SDS011;16364;52.490;13.326;2023-12-14T06:05:03;13.97;;;9.80;;
29380;SDS011;16364;52.490;13.326;2023-12-14T06:07:29;12.80;;;7.40;;
29380;SDS011;16364;52.490;13.326;2023-12-14T06:09:54;10.77;;;6.67;;
29380;SDS011;16364;52.490;13.326;2023-12-14T06:12:19;12.10;;;6.67;;
29380;SDS011;16364;52.490;13.326;2023-12-14T06:14:44;10.00;;;6.57;;
29380;SDS011;16364;52.490;13.326;2023-12-14T06:17:10;10.33;;;6.87;;
29380;SDS011;16364;52.490;13.326;2023-12-14T06:19:35;10.10;;;6.80;;
29380;SDS011;16364;52.490;13.326;2023-12-14T06:22:00;8.80;;;7.13;;
29380;SDS011;16364;52.490;13.326;2023-12-14T06:24:25;8.13;;;6.57;;
29380;SDS011;16364;52.490;13.326;2023-12-14T06:26:51;11.00;;;7.60;;
29380;SDS011;16364;52.490;13.326;2023-12-14T06:29:16;8.40;;;6.30;;
29380;SDS011;16364;52.490;13.326;2023-12-14T06:31:41;7.67;;;6.10;;
29380;SDS011;16364;52.490;13.326;2023-12-14T06:34:06;7.50;;;6.70;;
29380;SDS011;16364;52.490;13.326;2023-12-14T06:36:33;7.60;;;5.60;;
29380;SDS011;16364;52.490;13.326;2023-12-14T06:38:58;7.97;;;5.70;;
29380;SDS011;16364;52.490;13.326;2023-12-14T06:41:24;7.97;;;6.13;;
29380;SDS011;16364;52.490;13.326;2023-12-14T06:43:50;7.33;;;6.13;;
29380;SDS011;16364;52.490;13.326;2023-12-14T06:46:15;8.97;;;6.30;;
29380;SDS011;16364;52.490;13.326;2023-12-14T06:48:40;7.50;;;6.17;;
29380;SDS011;16364;52.490;13.326;2023-12-14T06:51:06;7.20;;;5.80;;
29380;SDS011;16364;52.490;13.326;2023-12-14T06:53:31;8.63;;;5.73;;
29380;SDS011;16364;52.490;13.326;2023-12-14T06:55:56;6.20;;;5.30;;
29380;SDS011;16364;52.490;13.326;2023-12-14T06:58:21;6.17;;;5.33;;
29380;SDS011;16364;52.490;13.326;2023-12-14T07:00:46;9.83;;;7.93;;
29380;SDS011;16364;52.490;13.326;2023-12-14T07:03:12;7.83;;;7.03;;
29380;SDS011;16364;52.490;13.326;2023-12-14T07:05:38;6.37;;;5.63;;
29380;SDS011;16364;52.490;13.326;2023-12-14T07:08:03;10.30;;;7.10;;
29380;SDS011;16364;52.490;13.326;2023-12-14T07:10:29;8.10;;;6.43;;
29380;SDS011;16364;52.490;13.326;2023-12-14T07:12:54;6.23;;;5.63;;
29380;SDS011;16364;52.490;13.326;2023-12-14T07:15:19;7.50;;;6.33;;
29380;SDS011;16364;52.490;13.326;2023-12-14T07:17:44;8.07;;;5.93;;
29380;SDS011;16364;52.490;13.326;2023-12-14T07:20:10;9.30;;;6.10;;
29380;SDS011;16364;52.490;13.326;2023-12-14T07:22:35;8.13;;;5.70;;
29380;SDS011;16364;52.490;13.326;2023-12-14T07:25:00;9.37;;;6.63;;
29380;SDS011;16364;52.490;13.326;2023-12-14T07:27:26;8.13;;;5.80;;
29380;SDS011;16364;52.490;13.326;2023-12-14T07:29:51;8.67;;;5.93;;
29380;SDS011;16364;52.490;13.326;2023-12-14T07:32:16;9.60;;;5.60;;
29380;SDS011;16364;52.490;13.326;2023-12-14T07:34:41;7.57;;;6.07;;
29380;SDS011;16364;52.490;13.326;2023-12-14T07:37:07;9.70;;;6.97;;
29380;SDS011;16364;52.490;13.326;2023-12-14T07:39:32;10.90;;;7.07;;
29380;SDS011;16364;52.490;13.326;2023-12-14T07:41:57;10.00;;;6.70;;
29380;SDS011;16364;52.490;13.326;2023-12-14T07:44:23;7.70;;;6.97;;
29380;SDS011;16364;52.490;13.326;2023-12-14T07:46:50;7.77;;;6.20;;
29380;SDS011;16364;52.490;13.326;2023-12-14T07:49:15;8.67;;;7.20;;
29380;SDS011;16364;52.490;13.326;2023-12-14T07:51:40;9.87;;;7.90;;
29380;SDS011;16364;52.490;13.326;2023-12-14T07:54:06;10.50;;;8.90;;
29380;SDS011;16364;52.490;13.326;2023-12-14T07:56:31;10.83;;;8.10;;
29380;SDS011;16364;52.490;13.326;2023-12-14T07:58:58;11.80;;;7.87;;
29380;SDS011;16364;52.490;13.326;2023-12-14T08:01:23;17.20;;;7.97;;
29380;SDS011;16364;52.490;13.326;2023-12-14T08:03:48;12.07;;;8.27;;
29380;SDS011;16364;52.490;13.326;2023-12-14T08:06:13;12.07;;;8.90;;
29380;SDS011;16364;52.490;13.326;2023-12-14T08:08:39;16.23;;;10.40;;
29380;SDS011;16364;52.490;13.326;2023-12-14T08:11:04;15.50;;;10.10;;
29380;SDS011;16364;52.490;13.326;2023-12-14T08:13:30;17.20;;;10.30;;
29380;SDS011;16364;52.490;13.326;2023-12-14T08:15:55;11.17;;;9.37;;
29380;SDS011;16364;52.490;13.326;2023-12-14T08:18:20;13.53;;;9.70;;
29380;SDS011;16364;52.490;13.326;2023-12-14T08:20:45;11.17;;;8.70;;
29380;SDS011;16364;52.490;13.326;2023-12-14T08:23:11;13.63;;;8.10;;
29380;SDS011;16364;52.490;13.326;2023-12-14T08:25:36;15.60;;;10.33;;
29380;SDS011;16364;52.490;13.326;2023-12-14T08:28:01;13.00;;;9.20;;
29380;SDS011;16364;52.490;13.326;2023-12-14T08:30:26;14.53;;;9.97;;
29380;SDS011;16364;52.490;13.326;2023-12-14T08:32:52;20.37;;;11.53;;
29380;SDS011;16364;52.490;13.326;2023-12-14T08:35:17;13.00;;;8.70;;
29380;SDS011;16364;52.490;13.326;2023-12-14T08:37:42;13.10;;;8.70;;
29380;SDS011;16364;52.490;13.326;2023-12-14T08:40:09;15.03;;;9.00;;
29380;SDS011;16364;52.490;13.326;2023-12-14T08:42:34;10.93;;;7.70;;
29380;SDS011;16364;52.490;13.326;2023-12-14T08:44:59;10.30;;;8.57;;
29380;SDS011;16364;52.490;13.326;2023-12-14T08:47:24;13.93;;;9.00;;
29380;SDS011;16364;52.490;13.326;2023-12-14T08:49:50;12.93;;;9.23;;
29380;SDS011;16364;52.490;13.326;2023-12-14T08:52:15;10.67;;;8.60;;
29380;SDS011;16364;52.490;13.326;2023-12-14T08:54:40;13.30;;;9.40;;
29380;SDS011;16364;52.490;13.326;2023-12-14T08:57:08;18.63;;;10.87;;
29380;SDS011;16364;52.490;13.326;2023-12-14T08:59:33;12.30;;;10.03;;
29380;SDS011;16364;52.490;13.326;2023-12-14T09:01:58;13.37;;;10.23;;
29380;SDS011;16364;52.490;13.326;2023-12-14T09:04:24;15.70;;;11.07;;
29380;SDS011;16364;52.490;13.326;2023-12-14T09:06:49;15.27;;;9.60;;
29380;SDS011;16364;52.490;13.326;2023-12-14T09:09:14;12.40;;;9.37;;
29380;SDS011;16364;52.490;13.326;2023-12-14T09:11:39;17.27;;;10.33;;
29380;SDS011;16364;52.490;13.326;2023-12-14T09:14:05;16.50;;;12.13;;
29380;SDS011;16364;52.490;13.326;2023-12-14T09:16:30;31.53;;;18.00;;
29380;SDS011;16364;52.490;13.326;2023-12-14T09:18:56;23.70;;;15.83;;
29380;SDS011;16364;52.490;13.326;2023-12-14T09:21:21;14.13;;;10.43;;
29380;SDS011;16364;52.490;13.326;2023-12-14T09:23:46;16.40;;;9.80;;
29380;SDS011;16364;52.490;13.326;2023-12-14T09:26:11;13.20;;;9.63;;
29380;SDS011;16364;52.490;13.326;2023-12-14T09:28:37;14.43;;;9.30;;
29380;SDS011;16364;52.490;13.326;2023-12-14T09:31:02;15.03;;;10.80;;
29380;SDS011;16364;52.490;13.326;2023-12-14T09:33:27;12.27;;;10.50;;
29380;SDS011;16364;52.490;13.326;2023-12-14T09:35:53;13.30;;;8.90;;
29380;SDS011;16364;52.490;13.326;2023-12-14T09:38:18;12.20;;;8.13;;
29380;SDS011;16364;52.490;13.326;2023-12-14T09:40:44;10.77;;;8.50;;
29380;SDS011;16364;52.490;13.326;2023-12-14T09:43:09;16.27;;;10.20;;
29380;SDS011;16364;52.490;13.326;2023-12-14T09:45:35;14.00;;;10.90;;
29380;SDS011;16364;52.490;13.326;2023-12-14T09:48:01;16.00;;;10.77;;
29380;SDS011;16364;52.490;13.326;2023-12-14T09:50:26;15.20;;;11.60;;
29380;SDS011;16364;52.490;13.326;2023-12-14T09:52:51;13.67;;;9.00;;
29380;SDS011;16364;52.490;13.326;2023-12-14T09:55:17;12.60;;;9.40;;
29380;SDS011;16364;52.490;13.326;2023-12-14T09:57:42;17.80;;;10.23;;
29380;SDS011;16364;52.490;13.326;2023-12-14T10:00:08;12.77;;;8.77;;
29380;SDS011;16364;52.490;13.326;2023-12-14T10:02:36;16.57;;;10.30;;
29380;SDS011;16364;52.490;13.326;2023-12-14T10:05:01;13.03;;;9.53;;
29380;SDS011;16364;52.490;13.326;2023-12-14T10:07:26;13.03;;;8.30;;
29380;SDS011;16364;52.490;13.326;2023-12-14T10:09:52;14.97;;;8.83;;
29380;SDS011;16364;52.490;13.326;2023-12-14T10:12:20;13.10;;;8.97;;
29380;SDS011;16364;52.490;13.326;2023-12-14T10:14:48;14.17;;;8.97;;
29380;SDS011;16364;52.490;13.326;2023-12-14T10:17:24;11.10;;;7.67;;
29380;SDS011;16364;52.490;13.326;2023-12-14T10:19:56;12.80;;;9.37;;
29380;SDS011;16364;52.490;13.326;2023-12-14T10:22:22;14.63;;;9.17;;
29380;SDS011;16364;52.490;13.326;2023-12-14T10:24:47;10.83;;;7.10;;
29380;SDS011;16364;52.490;13.326;2023-12-14T10:27:16;12.93;;;8.90;;
29380;SDS011;16364;52.490;13.326;2023-12-14T10:29:41;12.30;;;9.20;;
29380;SDS011;16364;52.490;13.326;2023-12-14T10:32:07;13.97;;;8.57;;
29380;SDS011;16364;52.490;13.326;2023-12-14T10:34:34;14.20;;;9.03;;
29380;SDS011;16364;52.490;13.326;2023-12-14T10:36:59;11.30;;;8.50;;
29380;SDS011;16364;52.490;13.326;2023-12-14T10:39:24;17.27;;;10.47;;
29380;SDS011;16364;52.490;13.326;2023-12-14T10:41:50;14.47;;;9.43;;
29380;SDS011;16364;52.490;13.326;2023-12-14T10:44:18;11.77;;;7.40;;
29380;SDS011;16364;52.490;13.326;2023-12-14T10:46:46;13.70;;;9.07;;
29380;SDS011;16364;52.490;13.326;2023-12-14T10:49:13;19.17;;;10.53;;
29380;SDS011;16364;52.490;13.326;2023-12-14T10:51:38;12.20;;;10.90;;
29380;SDS011;16364;52.490;13.326;2023-12-14T10:54:07;11.77;;;7.90;;
29380;SDS011;16364;52.490;13.326;2023-12-14T10:56:33;17.03;;;9.93;;
29380;SDS011;16364;52.490;13.326;2023-12-14T10:58:58;15.77;;;10.53;;
29380;SDS011;16364;52.490;13.326;2023-12-14T11:01:25;12.37;;;9.77;;
29380;SDS011;16364;52.490;13.326;2023-12-14T11:03:54;16.13;;;10.10;;
29380;SDS011;16364;52.490;13.326;2023-12-14T11:08:46;13.93;;;9.43;;
29380;SDS011;16364;52.490;13.326;2023-12-14T11:11:11;15.23;;;9.43;;
29380;SDS011;16364;52.490;13.326;2023-12-14T11:13:38;12.90;;;8.73;;
29380;SDS011;16364;52.490;13.326;2023-12-14T11:16:05;14.93;;;9.20;;
29380;SDS011;16364;52.490;13.326;2023-12-14T11:18:30;18.50;;;10.37;;
29380;SDS011;16364;52.490;13.326;2023-12-14T11:20:57;13.57;;;9.47;;
29380;SDS011;16364;52.490;13.326;2023-12-14T11:25:51;13.50;;;10.13;;
29380;SDS011;16364;52.490;13.326;2023-12-14T11:28:16;17.27;;;10.17;;
29380;SDS011;16364;52.490;13.326;2023-12-14T11:30:43;14.87;;;10.43;;
29380;SDS011;16364;52.490;13.326;2023-12-14T11:33:08;14.43;;;10.03;;
29380;SDS011;16364;52.490;13.326;2023-12-14T11:35:35;12.57;;;9.93;;
29380;SDS011;16364;52.490;13.326;2023-12-14T11:38:01;15.67;;;9.43;;
29380;SDS011;16364;52.490;13.326;2023-12-14T11:40:28;13.17;;;8.47;;
29380;SDS011;16364;52.490;13.326;2023-12-14T11:43:00;13.27;;;9.77;;
29380;SDS011;16364;52.490;13.326;2023-12-14T11:45:26;12.43;;;9.37;;
29380;SDS011;16364;52.490;13.326;2023-12-14T11:47:51;12.83;;;8.87;;
29380;SDS011;16364;52.490;13.326;2023-12-14T11:50:17;13.80;;;8.70;;
29380;SDS011;16364;52.490;13.326;2023-12-14T11:52:42;14.30;;;10.00;;
29380;SDS011;16364;52.490;13.326;2023-12-14T11:55:09;16.67;;;10.53;;
29380;SDS011;16364;52.490;13.326;2023-12-14T11:57:35;15.93;;;10.80;;
29380;SDS011;16364;52.490;13.326;2023-12-14T12:00:00;15.70;;;8.73;;
29380;SDS011;16364;52.490;13.326;2023-12-14T12:02:26;12.40;;;8.40;;
29380;SDS011;16364;52.490;13.326;2023-12-14T12:04:51;10.47;;;8.87;;
29380;SDS011;16364;52.490;13.326;2023-12-14T12:07:17;15.13;;;9.10;;
29380;SDS011;16364;52.490;13.326;2023-12-14T12:09:42;10.90;;;7.87;;
29380;SDS011;16364;52.490;13.326;2023-12-14T12:12:08;12.03;;;8.00;;
29380;SDS011;16364;52.490;13.326;2023-12-14T12:14:34;13.33;;;10.10;;
29380;SDS011;16364;52.490;13.326;2023-12-14T12:16:59;13.33;;;9.53;;
29380;SDS011;16364;52.490;13.326;2023-12-14T12:19:25;14.23;;;8.70;;
29380;SDS011;16364;52.490;13.326;2023-12-14T12:21:50;12.47;;;8.63;;
29380;SDS011;16364;52.490;13.326;2023-12-14T12:24:15;25.00;;;14.93;;
29380;SDS011;16364;52.490;13.326;2023-12-14T12:26:40;20.00;;;14.27;;
29380;SDS011;16364;52.490;13.326;2023-12-14T12:29:06;17.83;;;12.13;;
29380;SDS011;16364;52.490;13.326;2023-12-14T12:31:31;13.83;;;9.67;;
29380;SDS011;16364;52.490;13.326;2023-12-14T12:33:56;13.17;;;9.70;;
29380;SDS011;16364;52.490;13.326;2023-12-14T12:36:22;13.23;;;10.00;;
29380;SDS011;16364;52.490;13.326;2023-12-14T12:38:47;14.77;;;9.47;;
29380;SDS011;16364;52.490;13.326;2023-12-14T12:41:12;14.13;;;9.30;;
29380;SDS011;16364;52.490;13.326;2023-12-14T12:43:37;9.80;;;7.90;;
29380;SDS011;16364;52.490;13.326;2023-12-14T12:46:03;10.63;;;7.77;;
29380;SDS011;16364;52.490;13.326;2023-12-14T12:48:28;11.83;;;8.10;;
29380;SDS011;16364;52.490;13.326;2023-12-14T12:50:53;8.47;;;6.80;;
29380;SDS011;16364;52.490;13.326;2023-12-14T12:53:19;8.67;;;6.33;;
29380;SDS011;16364;52.490;13.326;2023-12-14T12:55:44;9.23;;;7.40;;
29380;SDS011;16364;52.490;13.326;2023-12-14T12:58:09;11.03;;;7.57;;
29380;SDS011;16364;52.490;13.326;2023-12-14T13:00:34;12.30;;;9.07;;
29380;SDS011;16364;52.490;13.326;2023-12-14T13:03:01;10.67;;;8.57;;
29380;SDS011;16364;52.490;13.326;2023-12-14T13:05:27;13.07;;;8.17;;
29380;SDS011;16364;52.490;13.326;2023-12-14T13:07:52;16.60;;;8.47;;
29380;SDS011;16364;52.490;13.326;2023-12-14T13:10:19;12.73;;;8.90;;
29380;SDS011;16364;52.490;13.326;2023-12-14T13:12:47;14.27;;;9.60;;
29380;SDS011;16364;52.490;13.326;2023-12-14T13:15:12;11.93;;;8.90;;
29380;SDS011;16364;52.490;13.326;2023-12-14T13:17:37;16.37;;;10.47;;
29380;SDS011;16364;52.490;13.326;2023-12-14T13:20:03;13.77;;;9.50;;
29380;SDS011;16364;52.490;13.326;2023-12-14T13:22:29;13.93;;;10.40;;
29380;SDS011;16364;52.490;13.326;2023-12-14T13:24:54;14.50;;;9.87;;
29380;SDS011;16364;52.490;13.326;2023-12-14T13:27:19;12.40;;;10.60;;
29380;SDS011;16364;52.490;13.326;2023-12-14T13:29:45;15.23;;;10.30;;
29380;SDS011;16364;52.490;13.326;2023-12-14T13:32:10;13.07;;;9.63;;
29380;SDS011;16364;52.490;13.326;2023-12-14T13:34:35;13.93;;;9.23;;
29380;SDS011;16364;52.490;13.326;2023-12-14T13:37:01;13.60;;;8.83;;
29380;SDS011;16364;52.490;13.326;2023-12-14T13:39:27;14.63;;;10.47;;
29380;SDS011;16364;52.490;13.326;2023-12-14T13:41:52;16.13;;;12.20;;
29380;SDS011;16364;52.490;13.326;2023-12-14T13:44:17;18.00;;;12.33;;
29380;SDS011;16364;52.490;13.326;2023-12-14T13:46:43;14.33;;;11.10;;
29380;SDS011;16364;52.490;13.326;2023-12-14T13:49:08;21.73;;;12.90;;
29380;SDS011;16364;52.490;13.326;2023-12-14T13:51:33;18.83;;;11.50;;
29380;SDS011;16364;52.490;13.326;2023-12-14T13:53:59;16.90;;;11.80;;
29380;SDS011;16364;52.490;13.326;2023-12-14T13:56:24;13.87;;;10.80;;
29380;SDS011;16364;52.490;13.326;2023-12-14T13:58:49;14.10;;;9.20;;
29380;SDS011;16364;52.490;13.326;2023-12-14T14:01:14;12.87;;;10.63;;
29380;SDS011;16364;52.490;13.326;2023-12-14T14:03:42;14.87;;;10.77;;
29380;SDS011;16364;52.490;13.326;2023-12-14T14:06:08;16.57;;;11.40;;
29380;SDS011;16364;52.490;13.326;2023-12-14T14:08:34;19.00;;;12.97;;
29380;SDS011;16364;52.490;13.326;2023-12-14T14:11:00;17.90;;;12.23;;
29380;SDS011;16364;52.490;13.326;2023-12-14T14:13:25;17.60;;;11.70;;
29380;SDS011;16364;52.490;13.326;2023-12-14T14:15:50;22.13;;;11.47;;